French Lick, IN (47432)

12:52 AM EST on February 13, 2016 (GMT -0500)
fL | | Change Station
CLOSE
Current Station
Personal Weather Station
Location: French Lick, IN
Elevation: 758 ft
Nearby Weather Stations

Elev 758 ft 38.53 °N, 86.65 °W | Updated 11 minutes ago

Partly Cloudy
Partly Cloudy
18.9 °F
Feels Like 13 °F
N
4.0
Wind Variable Wind from ENE
Gusts 17.0 mph

Today
High -- | Low -- °F
--% Chance of Precip.
Yesterday
High -- | Low -- °F
Precip. -- in
Pressure 30.42 in
Visibility 10.0 miles
Clouds Clear
Windchill 13 °F
Dew Point 7 °F
Humidity 61%
Rainfall 0.00 in
Snow Depth Not available.
7:40 AM 6:21 PM
Waxing Crescent, 27% visible
METAR KHNB 130535Z AUTO 34018G23KT 10SM CLR M06/M15 A3042 RMK AO1
Pressure 30.42 in
Visibility 10.0 miles
Clouds Clear
Windchill 13 °F
Dew Point 7 °F
Humidity 61%
Rainfall 0.00 in
Snow Depth Not available.
7:40 AM 6:21 PM
Waxing Crescent, 27% visible
METAR KHNB 130535Z AUTO 34018G23KT 10SM CLR M06/M15 A3042 RMK AO1

10-Day Weather Forecast

Almanac

Astronomy

Feb. 13, 2016 Rise Set
Actual Time
Civil Twilight
Nautical Twilight
Astronomical Twilight
Moon
Length of Visible Light
Length of Day
Tomorrow will be .
, % of the Moon is Illuminated

Today's Extremes

State Highs State Lows

Community

WunderPhotos

Upload Photos

1,892,507 photos uploaded!

WunderBlog® & News

Nearby

Air Quality

  Air Quality AQ Index Pollutant
Not available.

Snow Depth

Station Depth Elevation

Earthquake Activity

City Distance Mag. Time & Date
Minimum magnitude displayed is 2.5.

Coastal Water Temperatures

Place Temperature

Stations

Nearby Weather Stations

Station Location Temp. Windchill Dew Point Humidity Wind Precip. Elev Updated Type
                   

Watches & Warnings

There are currently no watches in effect.